sensor_id;sensor_type;location;lat;lon;timestamp;pressure;altitude;pressure_sealevel;temperature;humidity
68179;BME280;69812;42.632;23.440;2023-09-30T00:00:44;95552.13;;;12.60;74.20
68179;BME280;69812;42.632;23.440;2023-09-30T00:03:09;95535.84;;;12.60;74.27
68179;BME280;69812;42.632;23.440;2023-09-30T00:05:36;95551.03;;;12.72;73.67
68179;BME280;69812;42.632;23.440;2023-09-30T00:08:03;95546.56;;;12.65;72.99
68179;BME280;69812;42.632;23.440;2023-09-30T00:10:28;95549.69;;;12.59;73.18
68179;BME280;69812;42.632;23.440;2023-09-30T00:12:57;95518.38;;;12.34;74.03
68179;BME280;69812;42.632;23.440;2023-09-30T00:15:24;95516.50;;;12.36;74.52
68179;BME280;69812;42.632;23.440;2023-09-30T00:17:49;95555.22;;;12.44;74.29
68179;BME280;69812;42.632;23.440;2023-09-30T00:20:15;95557.00;;;12.34;72.77
68179;BME280;69812;42.632;23.440;2023-09-30T00:22:41;95538.28;;;12.32;73.07
68179;BME280;69812;42.632;23.440;2023-09-30T00:25:07;95527.72;;;12.35;73.66
68179;BME280;69812;42.632;23.440;2023-09-30T00:27:33;95541.94;;;12.39;73.54
68179;BME280;69812;42.632;23.440;2023-09-30T00:29:58;95554.16;;;12.57;72.88
68179;BME280;69812;42.632;23.440;2023-09-30T00:32:23;95539.53;;;12.47;72.91
68179;BME280;69812;42.632;23.440;2023-09-30T00:34:49;95526.22;;;12.42;73.71
68179;BME280;69812;42.632;23.440;2023-09-30T00:37:14;95520.69;;;12.37;74.00
68179;BME280;69812;42.632;23.440;2023-09-30T00:39:40;95524.22;;;12.36;74.18
68179;BME280;69812;42.632;23.440;2023-09-30T00:42:05;95540.31;;;12.38;74.26
68179;BME280;69812;42.632;23.440;2023-09-30T00:44:31;95525.44;;;12.32;74.25
68179;BME280;69812;42.632;23.440;2023-09-30T00:46:57;95519.88;;;12.37;74.72
68179;BME280;69812;42.632;23.440;2023-09-30T00:49:25;95534.63;;;12.44;75.07
68179;BME280;69812;42.632;23.440;2023-09-30T00:51:51;95527.59;;;12.46;75.10
68179;BME280;69812;42.632;23.440;2023-09-30T00:54:17;95533.69;;;12.45;74.76
68179;BME280;69812;42.632;23.440;2023-09-30T00:56:45;95529.91;;;12.49;74.60
68179;BME280;69812;42.632;23.440;2023-09-30T00:59:14;95520.97;;;12.53;74.45
68179;BME280;69812;42.632;23.440;2023-09-30T01:01:43;95535.56;;;12.72;74.03
68179;BME280;69812;42.632;23.440;2023-09-30T01:04:11;95525.44;;;12.71;73.98
68179;BME280;69812;42.632;23.440;2023-09-30T01:06:36;95512.13;;;12.76;73.78
68179;BME280;69812;42.632;23.440;2023-09-30T01:09:02;95514.97;;;12.82;73.68
68179;BME280;69812;42.632;23.440;2023-09-30T01:11:28;95525.41;;;12.90;73.50
68179;BME280;69812;42.632;23.440;2023-09-30T01:13:54;95519.56;;;12.79;73.33
68179;BME280;69812;42.632;23.440;2023-09-30T01:16:19;95521.72;;;13.03;73.11
68179;BME280;69812;42.632;23.440;2023-09-30T01:18:45;95524.84;;;12.97;73.03
68179;BME280;69812;42.632;23.440;2023-09-30T01:21:10;95509.53;;;12.85;73.28
68179;BME280;69812;42.632;23.440;2023-09-30T01:23:36;95517.13;;;12.87;73.42
68179;BME280;69812;42.632;23.440;2023-09-30T01:26:03;95532.31;;;12.90;72.91
68179;BME280;69812;42.632;23.440;2023-09-30T01:28:29;95531.50;;;12.89;73.75
68179;BME280;69812;42.632;23.440;2023-09-30T01:30:55;95536.38;;;13.02;73.28
68179;BME280;69812;42.632;23.440;2023-09-30T01:33:21;95529.72;;;13.00;72.96
68179;BME280;69812;42.632;23.440;2023-09-30T01:35:47;95529.06;;;12.98;73.49
68179;BME280;69812;42.632;23.440;2023-09-30T01:38:12;95527.16;;;12.90;73.90
68179;BME280;69812;42.632;23.440;2023-09-30T01:40:38;95527.69;;;12.93;73.65
68179;BME280;69812;42.632;23.440;2023-09-30T01:43:03;95517.53;;;12.92;73.51
68179;BME280;69812;42.632;23.440;2023-09-30T01:45:32;95536.91;;;13.06;72.90
68179;BME280;69812;42.632;23.440;2023-09-30T01:47:57;95524.44;;;12.91;71.38
68179;BME280;69812;42.632;23.440;2023-09-30T01:50:23;95522.84;;;12.81;71.98
68179;BME280;69812;42.632;23.440;2023-09-30T01:52:48;95511.31;;;12.75;72.20
68179;BME280;69812;42.632;23.440;2023-09-30T01:55:14;95514.97;;;12.82;71.89
68179;BME280;69812;42.632;23.440;2023-09-30T01:57:39;95517.09;;;12.97;71.29
68179;BME280;69812;42.632;23.440;2023-09-30T02:00:05;95506.84;;;12.77;71.36
68179;BME280;69812;42.632;23.440;2023-09-30T02:02:34;95486.94;;;12.60;70.95
68179;BME280;69812;42.632;23.440;2023-09-30T02:05:00;95508.22;;;12.71;70.93
68179;BME280;69812;42.632;23.440;2023-09-30T02:07:25;95523.53;;;12.53;71.61
68179;BME280;69812;42.632;23.440;2023-09-30T02:09:51;95499.69;;;12.42;72.26
68179;BME280;69812;42.632;23.440;2023-09-30T02:12:16;95517.97;;;12.29;71.82
68179;BME280;69812;42.632;23.440;2023-09-30T02:14:44;95508.59;;;12.18;72.98
68179;BME280;69812;42.632;23.440;2023-09-30T02:17:11;95510.50;;;12.06;72.97
68179;BME280;69812;42.632;23.440;2023-09-30T02:19:38;95512.19;;;11.86;73.91
68179;BME280;69812;42.632;23.440;2023-09-30T02:22:06;95512.94;;;11.77;75.00
68179;BME280;69812;42.632;23.440;2023-09-30T02:24:32;95509.50;;;11.47;76.13
68179;BME280;69812;42.632;23.440;2023-09-30T02:26:58;95517.91;;;11.28;76.90
68179;BME280;69812;42.632;23.440;2023-09-30T02:29:23;95514.06;;;11.13;77.21
68179;BME280;69812;42.632;23.440;2023-09-30T02:31:49;95502.78;;;11.04;78.15
68179;BME280;69812;42.632;23.440;2023-09-30T02:34:15;95494.41;;;10.81;78.23
68179;BME280;69812;42.632;23.440;2023-09-30T02:36:40;95502.00;;;10.83;78.85
68179;BME280;69812;42.632;23.440;2023-09-30T02:39:07;95514.03;;;10.82;80.21
68179;BME280;69812;42.632;23.440;2023-09-30T02:41:34;95511.63;;;10.69;80.46
68179;BME280;69812;42.632;23.440;2023-09-30T02:44:00;95521.91;;;10.69;80.06
68179;BME280;69812;42.632;23.440;2023-09-30T02:46:33;95521.38;;;10.55;80.42
68179;BME280;69812;42.632;23.440;2023-09-30T02:49:01;95518.78;;;10.34;81.27
68179;BME280;69812;42.632;23.440;2023-09-30T02:51:26;95515.28;;;10.23;81.85
68179;BME280;69812;42.632;23.440;2023-09-30T02:53:52;95505.38;;;10.19;82.29
68179;BME280;69812;42.632;23.440;2023-09-30T02:56:19;95521.94;;;10.26;83.58
68179;BME280;69812;42.632;23.440;2023-09-30T02:58:45;95501.78;;;10.21;83.64
68179;BME280;69812;42.632;23.440;2023-09-30T03:01:14;95505.72;;;10.25;83.71
68179;BME280;69812;42.632;23.440;2023-09-30T03:03:41;95522.31;;;10.21;83.90
68179;BME280;69812;42.632;23.440;2023-09-30T03:06:09;95517.03;;;10.23;83.73
68179;BME280;69812;42.632;23.440;2023-09-30T03:08:35;95524.28;;;10.29;83.31
68179;BME280;69812;42.632;23.440;2023-09-30T03:11:01;95526.09;;;10.50;82.65
68179;BME280;69812;42.632;23.440;2023-09-30T03:13:27;95518.19;;;10.41;82.59
68179;BME280;69812;42.632;23.440;2023-09-30T03:15:52;95520.75;;;10.62;82.25
68179;BME280;69812;42.632;23.440;2023-09-30T03:18:18;95527.91;;;10.59;82.22
68179;BME280;69812;42.632;23.440;2023-09-30T03:20:47;95513.56;;;10.56;82.19
68179;BME280;69812;42.632;23.440;2023-09-30T03:23:15;95519.03;;;10.63;81.37
68179;BME280;69812;42.632;23.440;2023-09-30T03:25:41;95512.03;;;10.54;81.50
68179;BME280;69812;42.632;23.440;2023-09-30T03:28:07;95499.16;;;10.44;81.88
68179;BME280;69812;42.632;23.440;2023-09-30T03:30:32;95511.50;;;10.50;82.52
68179;BME280;69812;42.632;23.440;2023-09-30T03:32:58;95528.22;;;10.65;82.68
68179;BME280;69812;42.632;23.440;2023-09-30T03:35:26;95514.00;;;10.61;82.76
68179;BME280;69812;42.632;23.440;2023-09-30T03:37:51;95515.31;;;10.56;83.49
68179;BME280;69812;42.632;23.440;2023-09-30T03:40:17;95504.41;;;10.42;83.38
68179;BME280;69812;42.632;23.440;2023-09-30T03:42:48;95514.78;;;10.41;83.30
68179;BME280;69812;42.632;23.440;2023-09-30T03:45:16;95516.75;;;10.48;83.56
68179;BME280;69812;42.632;23.440;2023-09-30T03:47:43;95523.16;;;10.43;84.22
68179;BME280;69812;42.632;23.440;2023-09-30T03:50:09;95512.78;;;10.44;83.97
68179;BME280;69812;42.632;23.440;2023-09-30T03:52:42;95511.41;;;10.40;83.79
68179;BME280;69812;42.632;23.440;2023-09-30T03:55:12;95523.53;;;10.38;84.16
68179;BME280;69812;42.632;23.440;2023-09-30T03:57:39;95510.72;;;10.27;83.43
68179;BME280;69812;42.632;23.440;2023-09-30T04:00:05;95526.38;;;10.24;83.80
68179;BME280;69812;42.632;23.440;2023-09-30T04:02:32;95516.50;;;10.08;84.08
68179;BME280;69812;42.632;23.440;2023-09-30T04:04:57;95520.94;;;9.95;84.77
68179;BME280;69812;42.632;23.440;2023-09-30T04:07:24;95512.59;;;9.81;85.28
68179;BME280;69812;42.632;23.440;2023-09-30T04:09:54;95514.78;;;9.86;85.75
68179;BME280;69812;42.632;23.440;2023-09-30T04:12:19;95535.97;;;9.99;85.25
68179;BME280;69812;42.632;23.440;2023-09-30T04:14:45;95529.25;;;9.87;85.24
68179;BME280;69812;42.632;23.440;2023-09-30T04:17:10;95520.91;;;9.74;85.44
68179;BME280;69812;42.632;23.440;2023-09-30T04:19:36;95534.88;;;9.70;85.45
68179;BME280;69812;42.632;23.440;2023-09-30T04:22:01;95538.81;;;9.62;85.43
68179;BME280;69812;42.632;23.440;2023-09-30T04:24:26;95525.81;;;9.54;86.55
68179;BME280;69812;42.632;23.440;2023-09-30T04:26:53;95542.91;;;9.54;86.64
68179;BME280;69812;42.632;23.440;2023-09-30T04:29:22;95545.47;;;9.42;87.04
68179;BME280;69812;42.632;23.440;2023-09-30T04:31:48;95539.53;;;9.53;87.54
68179;BME280;69812;42.632;23.440;2023-09-30T04:34:14;95550.72;;;9.52;87.63
68179;BME280;69812;42.632;23.440;2023-09-30T04:36:40;95529.75;;;9.47;87.75
68179;BME280;69812;42.632;23.440;2023-09-30T04:39:05;95547.34;;;9.63;87.77
68179;BME280;69812;42.632;23.440;2023-09-30T04:41:31;95551.28;;;9.78;87.33
68179;BME280;69812;42.632;23.440;2023-09-30T04:43:56;95546.16;;;9.78;86.50
68179;BME280;69812;42.632;23.440;2023-09-30T04:46:22;95541.72;;;9.92;86.67
68179;BME280;69812;42.632;23.440;2023-09-30T04:48:49;95525.78;;;10.20;85.86
68179;BME280;69812;42.632;23.440;2023-09-30T04:51:19;95538.44;;;10.77;84.97
68179;BME280;69812;42.632;23.440;2023-09-30T04:53:47;95540.63;;;11.02;82.24
68179;BME280;69812;42.632;23.440;2023-09-30T04:56:13;95541.75;;;11.30;80.30
68179;BME280;69812;42.632;23.440;2023-09-30T04:58:38;95549.88;;;12.07;76.48
68179;BME280;69812;42.632;23.440;2023-09-30T05:01:04;95543.44;;;12.81;74.16
68179;BME280;69812;42.632;23.440;2023-09-30T05:03:29;95557.09;;;13.77;70.79
68179;BME280;69812;42.632;23.440;2023-09-30T05:05:54;95562.06;;;14.62;67.52
68179;BME280;69812;42.632;23.440;2023-09-30T05:08:22;95559.81;;;15.29;63.12
68179;BME280;69812;42.632;23.440;2023-09-30T05:10:50;95563.25;;;15.90;60.96
68179;BME280;69812;42.632;23.440;2023-09-30T05:13:16;95554.84;;;16.47;58.61
68179;BME280;69812;42.632;23.440;2023-09-30T05:15:41;95549.06;;;17.18;54.78
68179;BME280;69812;42.632;23.440;2023-09-30T05:18:07;95556.25;;;17.80;54.29
68179;BME280;69812;42.632;23.440;2023-09-30T05:20:37;95558.69;;;18.53;51.85
68179;BME280;69812;42.632;23.440;2023-09-30T05:23:06;95564.59;;;19.16;50.95
68179;BME280;69812;42.632;23.440;2023-09-30T05:25:32;95556.94;;;19.82;48.77
68179;BME280;69812;42.632;23.440;2023-09-30T05:27:57;95566.28;;;20.42;46.77
68179;BME280;69812;42.632;23.440;2023-09-30T05:30:23;95559.28;;;21.01;45.44
68179;BME280;69812;42.632;23.440;2023-09-30T05:32:48;95562.81;;;21.15;43.67
68179;BME280;69812;42.632;23.440;2023-09-30T05:35:17;95552.16;;;21.66;43.26
68179;BME280;69812;42.632;23.440;2023-09-30T05:37:43;95572.25;;;22.07;42.44
68179;BME280;69812;42.632;23.440;2023-09-30T05:40:10;95557.97;;;22.51;41.42
68179;BME280;69812;42.632;23.440;2023-09-30T05:42:47;95558.66;;;22.73;40.49
68179;BME280;69812;42.632;23.440;2023-09-30T05:45:12;95574.03;;;23.36;39.94
68179;BME280;69812;42.632;23.440;2023-09-30T05:47:40;95555.84;;;23.61;38.27
68179;BME280;69812;42.632;23.440;2023-09-30T05:50:07;95569.50;;;23.90;38.16
68179;BME280;69812;42.632;23.440;2023-09-30T05:52:33;95579.53;;;24.13;37.37
68179;BME280;69812;42.632;23.440;2023-09-30T05:54:58;95550.28;;;24.61;36.57
68179;BME280;69812;42.632;23.440;2023-09-30T05:57:26;95573.25;;;24.66;35.79
68179;BME280;69812;42.632;23.440;2023-09-30T05:59:51;95576.84;;;24.78;36.29
68179;BME280;69812;42.632;23.440;2023-09-30T06:02:17;95582.03;;;25.48;34.50
68179;BME280;69812;42.632;23.440;2023-09-30T06:04:42;95582.44;;;25.45;35.16
68179;BME280;69812;42.632;23.440;2023-09-30T06:07:10;95590.25;;;25.77;34.42
68179;BME280;69812;42.632;23.440;2023-09-30T06:09:36;95585.75;;;25.59;34.56
68179;BME280;69812;42.632;23.440;2023-09-30T06:12:01;95577.41;;;24.48;35.73
68179;BME280;69812;42.632;23.440;2023-09-30T06:14:28;95591.63;;;25.36;35.28
68179;BME280;69812;42.632;23.440;2023-09-30T06:16:56;95582.38;;;25.52;34.10
68179;BME280;69812;42.632;23.440;2023-09-30T06:19:21;95590.66;;;25.55;34.76
68179;BME280;69812;42.632;23.440;2023-09-30T06:21:47;95588.16;;;25.60;34.92
68179;BME280;69812;42.632;23.440;2023-09-30T06:24:12;95587.38;;;26.03;33.36
68179;BME280;69812;42.632;23.440;2023-09-30T06:26:37;95600.75;;;26.57;32.71
68179;BME280;69812;42.632;23.440;2023-09-30T06:29:03;95602.41;;;27.12;32.23
68179;BME280;69812;42.632;23.440;2023-09-30T06:31:28;95586.91;;;27.46;31.42
68179;BME280;69812;42.632;23.440;2023-09-30T06:33:59;95591.53;;;27.20;31.82
68179;BME280;69812;42.632;23.440;2023-09-30T06:36:25;95582.09;;;27.31;31.44
68179;BME280;69812;42.632;23.440;2023-09-30T06:38:51;95589.41;;;27.29;31.69
68179;BME280;69812;42.632;23.440;2023-09-30T06:41:18;95599.19;;;27.52;30.99
68179;BME280;69812;42.632;23.440;2023-09-30T06:43:43;95584.34;;;27.28;31.48
68179;BME280;69812;42.632;23.440;2023-09-30T06:46:09;95598.38;;;27.10;32.25
68179;BME280;69812;42.632;23.440;2023-09-30T06:48:38;95594.47;;;27.66;30.59
68179;BME280;69812;42.632;23.440;2023-09-30T06:51:05;95599.94;;;27.41;30.92
68179;BME280;69812;42.632;23.440;2023-09-30T06:53:31;95579.81;;;27.70;30.95
68179;BME280;69812;42.632;23.440;2023-09-30T06:55:56;95584.63;;;27.97;30.29
68179;BME280;69812;42.632;23.440;2023-09-30T06:58:21;95586.16;;;28.33;29.97
68179;BME280;69812;42.632;23.440;2023-09-30T07:00:49;95601.66;;;28.30;29.91
68179;BME280;69812;42.632;23.440;2023-09-30T07:03:15;95594.34;;;28.20;30.32
68179;BME280;69812;42.632;23.440;2023-09-30T07:05:40;95607.06;;;28.23;31.77
68179;BME280;69812;42.632;23.440;2023-09-30T07:08:06;95606.19;;;28.05;30.79
68179;BME280;69812;42.632;23.440;2023-09-30T07:10:32;95603.88;;;27.97;30.78
68179;BME280;69812;42.632;23.440;2023-09-30T07:12:57;95608.47;;;27.78;30.60
68179;BME280;69812;42.632;23.440;2023-09-30T07:15:23;95597.78;;;27.26;32.18
68179;BME280;69812;42.632;23.440;2023-09-30T07:17:48;95616.69;;;27.35;31.39
68179;BME280;69812;42.632;23.440;2023-09-30T07:20:14;95613.16;;;27.11;31.97
68179;BME280;69812;42.632;23.440;2023-09-30T07:22:40;95612.59;;;24.79;34.69
68179;BME280;69812;42.632;23.440;2023-09-30T07:25:06;95616.59;;;25.13;35.24
68179;BME280;69812;42.632;23.440;2023-09-30T07:27:32;95605.25;;;24.43;36.81
68179;BME280;69812;42.632;23.440;2023-09-30T07:29:57;95618.75;;;25.55;34.79
68179;BME280;69812;42.632;23.440;2023-09-30T07:32:23;95619.69;;;25.60;34.74
68179;BME280;69812;42.632;23.440;2023-09-30T07:34:51;95613.72;;;24.51;35.64
68179;BME280;69812;42.632;23.440;2023-09-30T07:37:17;95596.56;;;24.55;36.47
68179;BME280;69812;42.632;23.440;2023-09-30T07:39:43;95613.19;;;24.23;35.99
68179;BME280;69812;42.632;23.440;2023-09-30T07:42:09;95612.69;;;23.34;38.57
68179;BME280;69812;42.632;23.440;2023-09-30T07:44:34;95616.09;;;23.01;39.19
68179;BME280;69812;42.632;23.440;2023-09-30T07:47:05;95611.13;;;22.65;39.96
68179;BME280;69812;42.632;23.440;2023-09-30T07:49:34;95613.97;;;22.22;39.60
68179;BME280;69812;42.632;23.440;2023-09-30T07:51:59;95608.91;;;21.79;40.25
68179;BME280;69812;42.632;23.440;2023-09-30T07:54:24;95618.19;;;21.88;40.73
68179;BME280;69812;42.632;23.440;2023-09-30T07:56:50;95616.72;;;21.29;40.69
68179;BME280;69812;42.632;23.440;2023-09-30T07:59:15;95615.25;;;21.20;40.80
68179;BME280;69812;42.632;23.440;2023-09-30T08:01:41;95605.22;;;20.44;42.23
68179;BME280;69812;42.632;23.440;2023-09-30T08:04:07;95599.00;;;20.45;43.07
68179;BME280;69812;42.632;23.440;2023-09-30T08:06:32;95619.97;;;20.88;42.61
68179;BME280;69812;42.632;23.440;2023-09-30T08:08:58;95619.22;;;21.16;40.85
68179;BME280;69812;42.632;23.440;2023-09-30T08:11:24;95619.47;;;21.21;41.73
68179;BME280;69812;42.632;23.440;2023-09-30T08:13:53;95604.97;;;21.40;42.04
68179;BME280;69812;42.632;23.440;2023-09-30T08:16:18;95608.53;;;21.53;40.60
68179;BME280;69812;42.632;23.440;2023-09-30T08:18:44;95608.06;;;21.71;40.62
68179;BME280;69812;42.632;23.440;2023-09-30T08:21:10;95621.00;;;21.86;39.08
68179;BME280;69812;42.632;23.440;2023-09-30T08:23:38;95608.03;;;22.00;40.43
68179;BME280;69812;42.632;23.440;2023-09-30T08:26:05;95604.94;;;21.89;39.70
68179;BME280;69812;42.632;23.440;2023-09-30T08:28:33;95602.31;;;21.89;38.50
68179;BME280;69812;42.632;23.440;2023-09-30T08:31:05;95609.31;;;21.82;39.20
68179;BME280;69812;42.632;23.440;2023-09-30T08:33:31;95596.91;;;21.91;39.15
68179;BME280;69812;42.632;23.440;2023-09-30T08:36:06;95601.53;;;21.89;37.56
68179;BME280;69812;42.632;23.440;2023-09-30T08:38:37;95604.50;;;21.86;37.95
68179;BME280;69812;42.632;23.440;2023-09-30T08:41:03;95599.94;;;21.94;36.81
68179;BME280;69812;42.632;23.440;2023-09-30T08:43:29;95591.31;;;22.01;38.47
68179;BME280;69812;42.632;23.440;2023-09-30T08:45:57;95600.88;;;22.15;38.04
68179;BME280;69812;42.632;23.440;2023-09-30T08:48:23;95602.75;;;22.28;37.75
68179;BME280;69812;42.632;23.440;2023-09-30T08:50:53;95595.56;;;22.43;35.29
68179;BME280;69812;42.632;23.440;2023-09-30T08:53:19;95583.88;;;22.32;35.26
68179;BME280;69812;42.632;23.440;2023-09-30T08:55:46;95600.47;;;22.18;36.44
68179;BME280;69812;42.632;23.440;2023-09-30T08:58:14;95595.50;;;21.88;35.17
68179;BME280;69812;42.632;23.440;2023-09-30T09:00:41;95594.41;;;21.76;35.01
68179;BME280;69812;42.632;23.440;2023-09-30T09:03:07;95588.84;;;21.86;34.70
68179;BME280;69812;42.632;23.440;2023-09-30T09:05:34;95595.31;;;21.62;35.00
68179;BME280;69812;42.632;23.440;2023-09-30T09:07:59;95580.88;;;21.66;35.21
68179;BME280;69812;42.632;23.440;2023-09-30T09:10:24;95579.03;;;21.60;34.37
68179;BME280;69812;42.632;23.440;2023-09-30T09:12:57;95585.56;;;21.77;34.45
68179;BME280;69812;42.632;23.440;2023-09-30T09:15:25;95578.75;;;21.76;34.03
68179;BME280;69812;42.632;23.440;2023-09-30T09:17:50;95575.59;;;21.87;33.81
68179;BME280;69812;42.632;23.440;2023-09-30T09:20:22;95587.94;;;22.07;33.95
68179;BME280;69812;42.632;23.440;2023-09-30T09:22:50;95584.50;;;22.00;34.89
68179;BME280;69812;42.632;23.440;2023-09-30T09:25:20;95567.22;;;22.05;32.43
68179;BME280;69812;42.632;23.440;2023-09-30T09:27:48;95573.38;;;22.26;33.18
68179;BME280;69812;42.632;23.440;2023-09-30T09:30:21;95576.19;;;22.24;32.98
68179;BME280;69812;42.632;23.440;2023-09-30T09:35:23;95573.91;;;22.56;30.54
68179;BME280;69812;42.632;23.440;2023-09-30T09:40:46;95553.56;;;22.51;32.72
68179;BME280;69812;42.632;23.440;2023-09-30T09:43:11;95559.00;;;22.63;31.99
68179;BME280;69812;42.632;23.440;2023-09-30T09:45:37;95562.66;;;22.75;31.93
68179;BME280;69812;42.632;23.440;2023-09-30T09:48:06;95545.09;;;22.49;31.76
68179;BME280;69812;42.632;23.440;2023-09-30T09:50:32;95557.88;;;22.86;32.17
68179;BME280;69812;42.632;23.440;2023-09-30T09:52:58;95554.81;;;22.75;32.56
68179;BME280;69812;42.632;23.440;2023-09-30T09:55:28;95556.41;;;22.63;32.07
68179;BME280;69812;42.632;23.440;2023-09-30T09:57:54;95560.22;;;22.61;31.83
68179;BME280;69812;42.632;23.440;2023-09-30T10:00:24;95551.41;;;22.75;31.34
68179;BME280;69812;42.632;23.440;2023-09-30T10:02:51;95526.81;;;22.63;31.35
68179;BME280;69812;42.632;23.440;2023-09-30T10:05:18;95549.03;;;23.00;31.87
68179;BME280;69812;42.632;23.440;2023-09-30T10:10:17;95537.56;;;23.01;31.53
68179;BME280;69812;42.632;23.440;2023-09-30T10:12:43;95541.19;;;23.00;31.24
68179;BME280;69812;42.632;23.440;2023-09-30T10:17:59;95529.72;;;23.08;30.99
68179;BME280;69812;42.632;23.440;2023-09-30T10:20:31;95524.06;;;23.17;29.89
68179;BME280;69812;42.632;23.440;2023-09-30T10:25:41;95520.81;;;22.95;29.25
68179;BME280;69812;42.632;23.440;2023-09-30T10:28:38;95510.34;;;23.42;29.84
68179;BME280;69812;42.632;23.440;2023-09-30T10:31:23;95516.41;;;23.43;29.48
68179;BME280;69812;42.632;23.440;2023-09-30T10:36:46;95510.97;;;23.17;29.94
68179;BME280;69812;42.632;23.440;2023-09-30T10:39:13;95485.19;;;23.21;30.71
68179;BME280;69812;42.632;23.440;2023-09-30T10:47:45;95463.59;;;23.39;28.83
68179;BME280;69812;42.632;23.440;2023-09-30T10:49:46;95490.72;;;23.71;28.28
68179;BME280;69812;42.632;23.440;2023-09-30T10:52:21;95474.81;;;23.73;27.26
68179;BME280;69812;42.632;23.440;2023-09-30T10:54:50;95496.00;;;23.58;26.65
68179;BME280;69812;42.632;23.440;2023-09-30T10:57:29;95463.78;;;23.57;26.99
68179;BME280;69812;42.632;23.440;2023-09-30T11:00:09;95494.34;;;23.64;26.55
68179;BME280;69812;42.632;23.440;2023-09-30T11:02:47;95486.50;;;23.64;26.48
68179;BME280;69812;42.632;23.440;2023-09-30T11:05:16;95499.00;;;23.75;26.83
68179;BME280;69812;42.632;23.440;2023-09-30T11:07:44;95475.84;;;23.58;26.77
68179;BME280;69812;42.632;23.440;2023-09-30T11:10:11;95498.16;;;23.74;26.57
68179;BME280;69812;42.632;23.440;2023-09-30T11:12:53;95480.72;;;23.35;27.01
68179;BME280;69812;42.632;23.440;2023-09-30T11:15:21;95488.09;;;23.71;27.28
68179;BME280;69812;42.632;23.440;2023-09-30T11:17:46;95475.44;;;23.68;27.15
68179;BME280;69812;42.632;23.440;2023-09-30T11:20:12;95479.25;;;23.79;27.41
68179;BME280;69812;42.632;23.440;2023-09-30T11:22:37;95476.31;;;23.22;27.21
68179;BME280;69812;42.632;23.440;2023-09-30T11:25:04;95473.53;;;23.10;27.82
68179;BME280;69812;42.632;23.440;2023-09-30T11:27:30;95480.72;;;23.35;27.98
68179;BME280;69812;42.632;23.440;2023-09-30T11:29:56;95469.63;;;23.46;28.01
68179;BME280;69812;42.632;23.440;2023-09-30T11:32:25;95474.53;;;23.23;27.43
68179;BME280;69812;42.632;23.440;2023-09-30T11:34:54;95473.31;;;23.25;27.89
68179;BME280;69812;42.632;23.440;2023-09-30T11:37:20;95466.06;;;23.07;27.88
68179;BME280;69812;42.632;23.440;2023-09-30T11:39:47;95458.00;;;23.09;28.89
68179;BME280;69812;42.632;23.440;2023-09-30T11:42:16;95453.50;;;23.56;27.42
68179;BME280;69812;42.632;23.440;2023-09-30T11:44:48;95466.53;;;23.83;26.88
68179;BME280;69812;42.632;23.440;2023-09-30T11:47:15;95468.72;;;23.92;27.43
68179;BME280;69812;42.632;23.440;2023-09-30T11:49:43;95478.41;;;23.85;27.11
68179;BME280;69812;42.632;23.440;2023-09-30T11:52:13;95449.19;;;23.75;28.54
68179;BME280;69812;42.632;23.440;2023-09-30T11:54:43;95459.09;;;23.80;28.64
68179;BME280;69812;42.632;23.440;2023-09-30T11:57:15;95444.97;;;23.74;28.71
68179;BME280;69812;42.632;23.440;2023-09-30T11:59:42;95450.22;;;23.67;28.45
68179;BME280;69812;42.632;23.440;2023-09-30T12:02:15;95450.72;;;23.31;29.47
68179;BME280;69812;42.632;23.440;2023-09-30T12:04:41;95444.69;;;23.30;29.09
68179;BME280;69812;42.632;23.440;2023-09-30T12:07:07;95433.38;;;23.43;29.53
68179;BME280;69812;42.632;23.440;2023-09-30T12:09:33;95438.63;;;23.43;27.93
68179;BME280;69812;42.632;23.440;2023-09-30T12:12:02;95427.13;;;23.44;28.53
68179;BME280;69812;42.632;23.440;2023-09-30T12:14:28;95442.00;;;23.50;28.14
68179;BME280;69812;42.632;23.440;2023-09-30T12:16:55;95430.72;;;23.50;29.07
68179;BME280;69812;42.632;23.440;2023-09-30T12:19:23;95434.72;;;23.59;28.58
68179;BME280;69812;42.632;23.440;2023-09-30T12:21:51;95423.91;;;23.49;28.86
68179;BME280;69812;42.632;23.440;2023-09-30T12:24:17;95413.88;;;23.26;29.42
68179;BME280;69812;42.632;23.440;2023-09-30T12:26:48;95424.25;;;23.59;28.37
68179;BME280;69812;42.632;23.440;2023-09-30T12:29:17;95408.53;;;23.59;28.83
68179;BME280;69812;42.632;23.440;2023-09-30T12:31:50;95425.25;;;23.65;28.67
68179;BME280;69812;42.632;23.440;2023-09-30T12:34:16;95407.63;;;23.40;28.51
68179;BME280;69812;42.632;23.440;2023-09-30T12:36:42;95419.97;;;23.71;27.63
68179;BME280;69812;42.632;23.440;2023-09-30T12:39:09;95422.41;;;23.73;27.04
68179;BME280;69812;42.632;23.440;2023-09-30T12:41:41;95407.56;;;23.53;28.21
68179;BME280;69812;42.632;23.440;2023-09-30T12:44:07;95412.97;;;23.58;28.51
68179;BME280;69812;42.632;23.440;2023-09-30T12:46:33;95405.16;;;23.45;28.32
68179;BME280;69812;42.632;23.440;2023-09-30T12:49:08;95405.22;;;23.32;28.42
68179;BME280;69812;42.632;23.440;2023-09-30T12:51:36;95392.38;;;22.97;28.28
68179;BME280;69812;42.632;23.440;2023-09-30T12:54:02;95407.06;;;23.11;29.39
68179;BME280;69812;42.632;23.440;2023-09-30T12:56:28;95400.44;;;22.82;28.41
68179;BME280;69812;42.632;23.440;2023-09-30T12:58:55;95396.78;;;23.16;28.81
68179;BME280;69812;42.632;23.440;2023-09-30T13:01:20;95378.72;;;23.02;28.27
68179;BME280;69812;42.632;23.440;2023-09-30T13:03:51;95385.44;;;23.43;27.87
68179;BME280;69812;42.632;23.440;2023-09-30T13:06:17;95396.63;;;23.63;28.09
68179;BME280;69812;42.632;23.440;2023-09-30T13:08:42;95379.41;;;23.42;27.72
68179;BME280;69812;42.632;23.440;2023-09-30T13:11:08;95387.63;;;23.46;27.73